createdAt,value
2018-07-17T00:00:19.392Z,3.60
2018-07-17T00:01:19.390Z,3.80
2018-07-17T00:02:19.402Z,3.80
2018-07-17T00:03:19.393Z,4.40
2018-07-17T00:04:19.381Z,4.20
2018-07-17T00:05:19.378Z,4.40
2018-07-17T00:06:19.391Z,4.60
2018-07-17T00:07:19.371Z,4.30
2018-07-17T00:08:19.373Z,3.70
2018-07-17T00:09:19.376Z,4.00
2018-07-17T00:10:19.364Z,4.10
2018-07-17T00:11:19.404Z,4.60
2018-07-17T00:12:19.370Z,4.40
2018-07-17T00:13:19.357Z,4.10
2018-07-17T00:14:19.357Z,4.20
2018-07-17T00:15:19.349Z,4.70
2018-07-17T00:16:19.355Z,3.90
2018-07-17T00:17:19.343Z,3.90
2018-07-17T00:18:19.344Z,4.20
2018-07-17T00:19:19.346Z,4.10
2018-07-17T00:20:19.336Z,4.10
2018-07-17T00:21:19.332Z,4.50
2018-07-17T00:22:19.332Z,4.00
2018-07-17T00:23:19.327Z,4.00
2018-07-17T00:24:19.326Z,3.80
2018-07-17T00:25:19.319Z,3.70
2018-07-17T00:26:19.321Z,4.10
2018-07-17T00:27:19.323Z,3.80
2018-07-17T00:28:19.312Z,3.90
2018-07-17T00:29:19.308Z,4.10
2018-07-17T00:30:19.312Z,4.40
2018-07-17T00:31:19.307Z,3.80
2018-07-17T00:32:19.295Z,4.00
2018-07-17T00:33:19.294Z,4.30
2018-07-17T00:34:19.292Z,4.70
2018-07-17T00:35:19.293Z,4.10
2018-07-17T00:36:19.284Z,4.20
2018-07-17T00:37:19.280Z,4.00
2018-07-17T00:38:19.286Z,3.70
2018-07-17T00:39:19.277Z,4.10
2018-07-17T00:40:19.275Z,4.20
2018-07-17T00:41:19.277Z,4.50
2018-07-17T00:42:19.269Z,4.70
2018-07-17T00:43:19.265Z,4.80
2018-07-17T00:44:19.266Z,4.50
2018-07-17T00:45:19.263Z,4.60
2018-07-17T00:46:19.256Z,4.60
2018-07-17T00:47:19.259Z,5.00
2018-07-17T00:48:19.255Z,4.60
2018-07-17T00:49:19.244Z,4.40
2018-07-17T00:50:19.243Z,4.50
2018-07-17T00:51:19.247Z,4.80
2018-07-17T00:52:19.251Z,4.50
2018-07-17T00:53:19.231Z,4.70
2018-07-17T00:54:19.230Z,4.70
2018-07-17T00:55:19.225Z,4.30
2018-07-17T00:56:19.224Z,4.00
2018-07-17T00:57:19.220Z,4.80
2018-07-17T00:58:19.230Z,4.20
2018-07-17T00:59:19.214Z,5.10
2018-07-17T01:00:19.209Z,4.00
2018-07-17T01:01:19.206Z,4.20
2018-07-17T01:02:19.206Z,4.30
2018-07-17T01:03:19.211Z,4.70
2018-07-17T01:04:19.198Z,4.20
2018-07-17T01:05:19.193Z,4.60
2018-07-17T01:06:19.191Z,4.90
2018-07-17T01:07:19.188Z,5.10
2018-07-17T01:08:19.188Z,5.10
2018-07-17T01:09:19.181Z,4.70
2018-07-17T01:10:19.185Z,5.00
2018-07-17T01:11:19.174Z,4.80
2018-07-17T01:12:19.183Z,5.10
2018-07-17T01:13:19.179Z,5.70
2018-07-17T01:14:19.164Z,5.20
2018-07-17T01:15:19.162Z,5.10
2018-07-17T01:16:19.157Z,4.90
2018-07-17T01:17:19.157Z,5.00
2018-07-17T01:18:19.161Z,4.80
2018-07-17T01:19:19.155Z,4.90
2018-07-17T01:20:19.144Z,5.00
2018-07-17T01:21:19.143Z,5.50
2018-07-17T01:22:19.145Z,5.50
2018-07-17T01:23:19.134Z,5.40
2018-07-17T01:24:19.138Z,4.90
2018-07-17T01:25:19.127Z,4.30
2018-07-17T01:26:19.128Z,4.80
2018-07-17T01:27:19.134Z,4.80
2018-07-17T01:28:19.116Z,4.60
2018-07-17T01:29:19.124Z,4.90
2018-07-17T01:30:19.111Z,5.00
2018-07-17T01:31:19.113Z,4.90
2018-07-17T01:32:19.103Z,5.00
2018-07-17T01:33:19.099Z,5.50
2018-07-17T01:34:19.098Z,5.30
2018-07-17T01:35:19.094Z,5.30
2018-07-17T01:36:19.094Z,5.80
2018-07-17T01:37:19.093Z,5.20
2018-07-17T01:38:19.129Z,4.90
2018-07-17T01:39:19.084Z,4.80
2018-07-17T01:40:19.079Z,5.10
2018-07-17T01:41:19.091Z,4.80
2018-07-17T01:42:19.069Z,4.70
2018-07-17T01:43:19.078Z,5.00
2018-07-17T01:44:19.067Z,4.50
2018-07-17T01:45:19.062Z,5.10
2018-07-17T01:46:19.054Z,4.70
2018-07-17T01:47:19.055Z,5.20
2018-07-17T01:48:19.048Z,5.10
2018-07-17T01:49:19.054Z,4.90
2018-07-17T01:50:19.040Z,5.70
2018-07-17T01:51:19.040Z,5.60
2018-07-17T01:52:19.042Z,5.70
2018-07-17T01:53:19.029Z,5.50
2018-07-17T01:54:19.030Z,5.50
2018-07-17T01:55:19.032Z,5.90
2018-07-17T01:56:19.020Z,5.40
2018-07-17T01:57:19.015Z,5.40
2018-07-17T01:58:19.028Z,5.40
2018-07-17T01:59:19.019Z,5.30
2018-07-17T02:00:19.011Z,5.80
2018-07-17T02:01:19.003Z,5.10
2018-07-17T02:02:18.998Z,5.30
2018-07-17T02:03:18.997Z,5.40
2018-07-17T02:04:18.990Z,5.20
2018-07-17T02:05:18.988Z,5.20
2018-07-17T02:06:18.984Z,5.30
2018-07-17T02:07:18.980Z,4.90
2018-07-17T02:08:18.977Z,5.20
2018-07-17T02:09:18.976Z,5.10
2018-07-17T02:10:18.975Z,5.30
2018-07-17T02:11:18.976Z,4.90
2018-07-17T02:12:18.967Z,5.50
2018-07-17T02:13:18.960Z,5.80
2018-07-17T02:14:18.957Z,5.20
2018-07-17T02:15:18.954Z,5.70
2018-07-17T02:16:18.956Z,5.40
2018-07-17T02:17:18.946Z,5.40
2018-07-17T02:18:18.941Z,5.00
2018-07-17T02:19:18.939Z,5.40
2018-07-17T02:20:18.933Z,5.10
2018-07-17T02:21:18.933Z,5.20
2018-07-17T02:22:18.925Z,5.20
2018-07-17T02:23:18.930Z,5.50
2018-07-17T02:24:18.924Z,5.20
2018-07-17T02:25:18.923Z,5.30
2018-07-17T02:26:18.912Z,5.70
2018-07-17T02:27:18.907Z,5.10
2018-07-17T02:28:18.905Z,5.40
2018-07-17T02:29:18.899Z,5.50
2018-07-17T02:30:18.904Z,5.80
2018-07-17T02:31:18.909Z,5.10
2018-07-17T02:32:18.888Z,5.30
2018-07-17T02:33:18.925Z,5.60
2018-07-17T02:34:18.882Z,5.50
2018-07-17T02:35:18.879Z,5.60
2018-07-17T02:36:18.875Z,5.20
2018-07-17T02:37:18.870Z,5.40
2018-07-17T02:38:18.882Z,5.20
2018-07-17T02:39:18.872Z,4.90
2018-07-17T02:40:18.860Z,5.20
2018-07-17T02:41:18.865Z,5.40
2018-07-17T02:42:18.924Z,5.40
2018-07-17T02:43:18.858Z,5.40
2018-07-17T02:44:18.846Z,5.30
2018-07-17T02:45:18.846Z,5.40
2018-07-17T02:46:18.852Z,5.70
2018-07-17T02:47:18.840Z,4.90
2018-07-17T02:48:18.830Z,5.20
2018-07-17T02:49:18.826Z,5.10
2018-07-17T02:50:18.822Z,5.50
2018-07-17T02:51:18.827Z,5.60
2018-07-17T02:52:18.814Z,5.50
2018-07-17T02:53:18.811Z,5.60
2018-07-17T02:54:18.819Z,6.00
2018-07-17T02:55:18.809Z,6.00
2018-07-17T02:56:18.802Z,5.40
2018-07-17T02:57:18.801Z,5.20
2018-07-17T02:58:18.799Z,5.70
2018-07-17T02:59:18.789Z,5.10
2018-07-17T03:00:18.788Z,5.30
2018-07-17T03:01:18.782Z,5.50
2018-07-17T03:02:18.783Z,5.60
2018-07-17T03:03:18.776Z,5.20
2018-07-17T03:04:18.775Z,5.60
2018-07-17T03:05:18.773Z,5.50
2018-07-17T03:06:18.771Z,5.20
2018-07-17T03:07:18.759Z,4.60
2018-07-17T03:08:18.757Z,5.00
2018-07-17T03:09:18.751Z,5.50
2018-07-17T03:10:18.755Z,5.40
2018-07-17T03:11:18.745Z,5.20
2018-07-17T03:12:18.738Z,5.40
2018-07-17T03:13:18.735Z,5.20
2018-07-17T03:14:18.733Z,5.00
2018-07-17T03:15:18.739Z,5.50
2018-07-17T03:16:18.728Z,5.60
2018-07-17T03:17:18.722Z,5.50
2018-07-17T03:18:18.718Z,5.40
2018-07-17T03:19:18.721Z,5.80
2018-07-17T03:20:18.707Z,5.70
2018-07-17T03:21:18.706Z,5.60
2018-07-17T03:22:18.704Z,5.30
2018-07-17T03:23:18.703Z,5.10
2018-07-17T03:24:18.693Z,4.60
2018-07-17T03:25:18.694Z,5.00
2018-07-17T03:26:18.696Z,5.00
2018-07-17T03:27:18.696Z,5.30
2018-07-17T03:28:18.686Z,5.30
2018-07-17T03:29:18.677Z,5.10
2018-07-17T03:30:18.671Z,5.70
2018-07-17T03:31:18.668Z,5.10
2018-07-17T03:32:18.674Z,5.10
2018-07-17T03:33:18.658Z,5.40
2018-07-17T03:34:18.654Z,5.30
2018-07-17T03:35:18.657Z,6.00
2018-07-17T03:36:18.661Z,5.90
2018-07-17T03:37:18.642Z,5.10
2018-07-17T03:38:18.647Z,4.90
2018-07-17T03:39:18.634Z,4.90
2018-07-17T03:40:18.632Z,5.30
2018-07-17T03:41:18.631Z,5.60
2018-07-17T03:42:18.624Z,5.40
2018-07-17T03:43:18.622Z,4.80
2018-07-17T03:44:18.627Z,5.70
2018-07-17T03:45:18.613Z,5.30
2018-07-17T03:46:18.609Z,5.30
2018-07-17T03:47:18.618Z,5.10
2018-07-17T03:48:18.599Z,5.40
2018-07-17T03:49:18.605Z,5.70
2018-07-17T03:50:18.594Z,5.20
2018-07-17T03:51:18.594Z,5.30
2018-07-17T03:52:18.591Z,5.40
2018-07-17T03:53:18.583Z,5.40
2018-07-17T03:54:18.577Z,5.60
2018-07-17T03:55:18.574Z,5.60
2018-07-17T03:56:18.572Z,5.30
2018-07-17T03:57:18.565Z,5.10
2018-07-17T03:58:18.570Z,4.80
2018-07-17T03:59:18.562Z,5.30
2018-07-17T04:00:18.557Z,5.20
2018-07-17T04:01:18.554Z,4.90
2018-07-17T04:02:18.550Z,5.20
2018-07-17T04:03:18.547Z,5.40
2018-07-17T04:04:18.563Z,5.50
2018-07-17T04:05:18.547Z,5.70
2018-07-17T04:06:18.539Z,5.20
2018-07-17T04:07:18.526Z,5.20
2018-07-17T04:08:18.529Z,6.00
2018-07-17T04:09:18.517Z,6.10
2018-07-17T04:10:18.529Z,5.20
2018-07-17T04:11:18.511Z,5.10
2018-07-17T04:12:18.510Z,5.00
2018-07-17T04:13:18.560Z,5.30
2018-07-17T04:14:18.503Z,4.50
2018-07-17T04:15:18.498Z,5.30
2018-07-17T04:16:18.492Z,5.40
2018-07-17T04:17:18.487Z,5.10
2018-07-17T04:18:18.489Z,5.20
2018-07-17T04:19:18.480Z,4.80
2018-07-17T04:20:18.484Z,5.30
2018-07-17T04:21:18.484Z,5.30
2018-07-17T04:22:18.476Z,5.10
2018-07-17T04:23:18.468Z,5.40
2018-07-17T04:24:18.461Z,5.20
2018-07-17T04:25:18.462Z,5.00
2018-07-17T04:26:18.457Z,4.90
2018-07-17T04:27:18.452Z,5.00
2018-07-17T04:28:18.444Z,5.10
2018-07-17T04:29:18.449Z,5.20
2018-07-17T04:30:18.438Z,5.10
2018-07-17T04:31:18.433Z,5.10
2018-07-17T04:32:18.437Z,5.20
2018-07-17T04:33:18.432Z,5.00
2018-07-17T04:34:18.425Z,5.20
2018-07-17T04:35:18.432Z,5.40
2018-07-17T04:36:18.425Z,5.30
2018-07-17T04:37:18.425Z,5.10
2018-07-17T04:38:18.423Z,5.40
2018-07-17T04:39:18.411Z,5.30
2018-07-17T04:40:18.408Z,5.40
2018-07-17T04:41:18.407Z,5.80
2018-07-17T04:42:18.410Z,5.80
2018-07-17T04:43:18.404Z,5.40
2018-07-17T04:44:18.406Z,5.90
2018-07-17T04:45:18.401Z,6.00
2018-07-17T04:46:18.414Z,6.00
2018-07-17T04:47:18.400Z,6.10
2018-07-17T04:48:18.399Z,5.90
2018-07-17T04:49:18.400Z,5.70
2018-07-17T04:50:18.415Z,5.80
2018-07-17T04:51:18.402Z,5.90
2018-07-17T04:52:18.412Z,5.00
2018-07-17T04:53:18.400Z,5.40
2018-07-17T04:54:18.409Z,5.20
2018-07-17T04:55:18.465Z,5.20
2018-07-17T04:56:18.403Z,5.20
2018-07-17T04:57:18.404Z,4.60
2018-07-17T04:58:18.405Z,4.90
2018-07-17T04:59:18.414Z,5.10
2018-07-17T05:00:18.408Z,4.80
2018-07-17T05:01:18.409Z,5.10
2018-07-17T05:02:18.421Z,5.00
2018-07-17T05:03:18.413Z,5.20
2018-07-17T05:04:18.415Z,5.20
2018-07-17T05:05:18.427Z,5.20
2018-07-17T05:06:18.422Z,4.50
2018-07-17T05:07:18.423Z,4.80
2018-07-17T05:08:18.433Z,5.30
2018-07-17T05:09:18.428Z,5.50
2018-07-17T05:10:18.433Z,5.60
2018-07-17T05:11:18.437Z,5.30
2018-07-17T05:12:18.439Z,4.80
2018-07-17T05:13:18.450Z,5.40
2018-07-17T05:14:18.451Z,5.40
2018-07-17T05:15:18.458Z,5.60
2018-07-17T05:16:18.489Z,5.10
2018-07-17T05:17:18.458Z,5.10
2018-07-17T05:18:18.462Z,5.30
2018-07-17T05:19:18.464Z,5.60
2018-07-17T05:20:18.528Z,4.90
2018-07-17T05:21:18.497Z,5.80
2018-07-17T05:22:18.473Z,5.80
2018-07-17T05:23:18.475Z,6.00
2018-07-17T05:24:18.487Z,5.40
2018-07-17T05:25:18.482Z,5.70
2018-07-17T05:26:18.493Z,5.70
2018-07-17T05:27:18.486Z,5.30
2018-07-17T05:28:18.487Z,5.60
2018-07-17T05:29:18.495Z,5.30
2018-07-17T05:30:18.497Z,5.70
2018-07-17T05:31:18.494Z,5.20
2018-07-17T05:32:18.508Z,5.10
2018-07-17T05:33:18.495Z,4.90
2018-07-17T05:34:18.500Z,5.80
2018-07-17T05:35:18.640Z,5.80
2018-07-17T05:36:18.514Z,5.70
2018-07-17T05:37:18.505Z,5.60
2018-07-17T05:38:18.508Z,5.90
2018-07-17T05:39:18.505Z,5.50
2018-07-17T05:40:18.509Z,5.60
2018-07-17T05:41:18.508Z,5.20
2018-07-17T05:42:18.517Z,5.70
2018-07-17T05:43:18.515Z,5.70
2018-07-17T05:44:18.509Z,5.70
2018-07-17T05:45:18.514Z,5.10
2018-07-17T05:46:18.512Z,5.10
2018-07-17T05:47:18.528Z,5.80
2018-07-17T05:48:18.512Z,5.70
2018-07-17T05:49:18.514Z,6.10
2018-07-17T05:50:18.515Z,5.60
2018-07-17T05:51:18.521Z,5.80
2018-07-17T05:52:18.517Z,6.80
2018-07-17T05:53:18.514Z,6.10
2018-07-17T05:54:18.523Z,6.40
2018-07-17T05:55:18.521Z,6.20
2018-07-17T05:56:18.530Z,5.70
2018-07-17T05:57:18.521Z,6.20
2018-07-17T05:58:18.521Z,6.10
2018-07-17T05:59:18.517Z,6.20
2018-07-17T06:00:18.517Z,6.00
2018-07-17T06:01:18.517Z,6.00
2018-07-17T06:02:18.521Z,5.10
2018-07-17T06:03:18.573Z,4.80
2018-07-17T06:04:18.524Z,5.80
2018-07-17T06:05:18.519Z,6.30
2018-07-17T06:06:18.527Z,5.50
2018-07-17T06:07:18.520Z,5.90
2018-07-17T06:08:18.519Z,5.40
2018-07-17T06:09:18.536Z,5.80
2018-07-17T06:10:18.525Z,6.00
2018-07-17T06:11:18.523Z,6.30
2018-07-17T06:12:18.534Z,5.10
2018-07-17T06:13:18.526Z,5.40
2018-07-17T06:14:18.521Z,5.60
2018-07-17T06:15:18.531Z,5.30
2018-07-17T06:16:18.526Z,5.40
2018-07-17T06:17:18.537Z,5.40
2018-07-17T06:18:18.527Z,5.30
2018-07-17T06:19:18.523Z,5.60
2018-07-17T06:20:18.544Z,6.00
2018-07-17T06:21:18.531Z,5.00
2018-07-17T06:22:18.533Z,6.20
2018-07-17T06:23:18.525Z,6.00
2018-07-17T06:24:18.529Z,5.50
2018-07-17T06:25:18.526Z,5.80
2018-07-17T06:26:18.525Z,6.50
2018-07-17T06:27:18.528Z,6.30
2018-07-17T06:28:18.534Z,5.40
2018-07-17T06:29:18.526Z,5.80
2018-07-17T06:30:18.530Z,5.30
2018-07-17T06:31:18.596Z,5.90
2018-07-17T06:32:18.529Z,6.40
2018-07-17T06:33:18.527Z,6.30
2018-07-17T06:34:18.542Z,6.20
2018-07-17T06:35:18.532Z,5.80
2018-07-17T06:36:18.529Z,5.00
2018-07-17T06:37:18.535Z,5.60
2018-07-17T06:38:18.534Z,5.50
2018-07-17T06:39:18.541Z,5.20
2018-07-17T06:40:18.544Z,5.40
2018-07-17T06:41:18.533Z,5.50
2018-07-17T06:42:18.542Z,5.90
2018-07-17T06:43:18.537Z,5.30
2018-07-17T06:44:18.534Z,5.30
2018-07-17T06:45:18.540Z,5.20
2018-07-17T06:46:18.534Z,5.40
2018-07-17T06:47:18.535Z,5.70
2018-07-17T06:48:18.535Z,5.60
2018-07-17T06:49:18.539Z,5.00
2018-07-17T06:50:18.720Z,5.60
2018-07-17T06:51:18.542Z,5.60
2018-07-17T06:52:18.538Z,5.20
2018-07-17T06:53:18.543Z,5.20
2018-07-17T06:54:18.540Z,5.50
2018-07-17T06:55:18.590Z,5.40
2018-07-17T06:56:18.540Z,5.20
2018-07-17T06:57:18.697Z,4.70
2018-07-17T06:58:18.550Z,5.00
2018-07-17T06:59:18.542Z,5.00
2018-07-17T07:00:18.556Z,5.60
2018-07-17T07:01:18.545Z,5.10
2018-07-17T07:02:18.545Z,4.90
2018-07-17T07:03:18.553Z,4.90
2018-07-17T07:04:18.548Z,4.90
2018-07-17T07:05:18.625Z,4.90
2018-07-17T07:06:18.556Z,5.00
2018-07-17T07:07:18.554Z,4.90
2018-07-17T07:08:18.560Z,5.00
2018-07-17T07:09:18.550Z,4.90
2018-07-17T07:10:18.550Z,5.70
2018-07-17T07:11:18.624Z,4.40
2018-07-17T07:12:18.560Z,5.10
2018-07-17T07:13:18.553Z,4.90
2018-07-17T07:14:18.565Z,4.80
2018-07-17T07:15:18.552Z,5.30
2018-07-17T07:16:18.558Z,5.40
2018-07-17T07:17:18.554Z,5.10
2018-07-17T07:18:18.562Z,6.20
2018-07-17T07:19:18.571Z,5.60
2018-07-17T07:20:18.557Z,5.30
2018-07-17T07:21:18.559Z,5.00
2018-07-17T07:22:18.560Z,5.00
2018-07-17T07:23:18.651Z,4.80
2018-07-17T07:24:18.559Z,5.40
2018-07-17T07:25:18.559Z,4.40
2018-07-17T07:26:18.571Z,5.10
2018-07-17T07:27:18.563Z,5.50
2018-07-17T07:28:18.563Z,5.80
2018-07-17T07:29:18.566Z,4.90
2018-07-17T07:30:18.577Z,5.10
2018-07-17T07:31:18.579Z,5.20
2018-07-17T07:32:18.566Z,5.20
2018-07-17T07:33:18.566Z,5.10
2018-07-17T07:34:18.569Z,4.90
2018-07-17T07:35:18.578Z,5.10
2018-07-17T07:36:18.569Z,5.30
2018-07-17T07:37:18.661Z,5.20
2018-07-17T07:38:18.586Z,5.90
2018-07-17T07:39:18.580Z,5.80
2018-07-17T07:40:18.575Z,5.50
2018-07-17T07:41:18.587Z,5.70
2018-07-17T07:42:18.578Z,6.00
2018-07-17T07:43:18.579Z,5.20
2018-07-17T07:44:18.581Z,5.00
2018-07-17T07:45:18.579Z,5.10
2018-07-17T07:46:18.585Z,5.20
2018-07-17T07:47:18.585Z,4.80
2018-07-17T07:48:18.594Z,5.10
2018-07-17T07:49:18.661Z,5.10
2018-07-17T07:50:18.591Z,5.30
2018-07-17T07:51:18.595Z,5.30
2018-07-17T07:52:18.588Z,5.50
2018-07-17T07:53:18.594Z,5.60
2018-07-17T07:54:18.594Z,5.40
2018-07-17T07:55:18.602Z,5.40
2018-07-17T07:56:18.598Z,5.10
2018-07-17T07:57:18.605Z,5.40
2018-07-17T07:58:18.602Z,5.60
2018-07-17T07:59:18.601Z,5.80
2018-07-17T08:00:18.600Z,5.40
2018-07-17T08:01:18.611Z,5.50
2018-07-17T08:02:18.613Z,5.30
2018-07-17T08:03:18.609Z,4.70
2018-07-17T08:04:18.609Z,4.90
2018-07-17T08:05:18.615Z,4.90
2018-07-17T08:06:18.616Z,5.40
2018-07-17T08:07:18.621Z,4.90
2018-07-17T08:08:18.614Z,4.80
2018-07-17T08:09:18.618Z,5.70
2018-07-17T08:10:18.625Z,5.40
2018-07-17T08:11:18.623Z,4.70
2018-07-17T08:12:18.667Z,4.90
2018-07-17T08:13:18.631Z,5.20
2018-07-17T08:14:18.638Z,5.40
2018-07-17T08:15:18.638Z,5.00
2018-07-17T08:16:18.638Z,4.50
2018-07-17T08:17:18.631Z,5.00
2018-07-17T08:18:18.638Z,5.00
2018-07-17T08:19:18.639Z,4.70
2018-07-17T08:20:18.635Z,4.80
2018-07-17T08:21:18.646Z,4.70
2018-07-17T08:22:18.640Z,5.00
2018-07-17T08:23:18.640Z,5.30
2018-07-17T08:24:18.722Z,5.30
2018-07-17T08:25:18.652Z,5.10
2018-07-17T08:26:18.652Z,5.40
2018-07-17T08:27:18.656Z,4.90
2018-07-17T08:28:18.648Z,5.10
2018-07-17T08:29:18.658Z,4.70
2018-07-17T08:30:18.660Z,5.20
2018-07-17T08:31:18.654Z,5.20
2018-07-17T08:32:18.664Z,5.50
2018-07-17T08:33:18.657Z,5.40
2018-07-17T08:34:18.661Z,5.20
2018-07-17T08:35:18.669Z,5.60
2018-07-17T08:36:18.662Z,5.70
2018-07-17T08:37:18.665Z,5.50
2018-07-17T08:38:18.668Z,5.10
2018-07-17T08:39:18.686Z,5.20
2018-07-17T08:40:18.676Z,5.30
2018-07-17T08:41:18.687Z,5.40
2018-07-17T08:42:18.684Z,5.10
2018-07-17T08:43:18.764Z,5.20
2018-07-17T08:44:18.683Z,4.80
2018-07-17T08:45:18.696Z,5.80
2018-07-17T08:46:18.689Z,5.00
2018-07-17T08:47:18.687Z,4.80
2018-07-17T08:48:18.692Z,5.50
2018-07-17T08:49:18.879Z,5.20
2018-07-17T08:50:18.694Z,4.90
2018-07-17T08:51:18.703Z,5.20
2018-07-17T08:52:18.704Z,4.80
2018-07-17T08:53:18.703Z,5.00
2018-07-17T08:54:18.706Z,5.00
2018-07-17T08:55:18.716Z,5.20
2018-07-17T08:56:18.711Z,5.10
2018-07-17T08:57:18.714Z,5.00
2018-07-17T08:58:18.718Z,5.40
2018-07-17T08:59:18.719Z,4.80
2018-07-17T09:00:18.721Z,5.50
2018-07-17T09:01:18.724Z,5.00
2018-07-17T09:02:18.735Z,5.20
2018-07-17T09:03:18.736Z,5.10
2018-07-17T09:04:18.731Z,4.90
2018-07-17T09:05:18.749Z,4.80
2018-07-17T09:06:18.740Z,5.60
2018-07-17T09:07:18.742Z,5.10
2018-07-17T09:08:18.746Z,5.20
2018-07-17T09:09:18.747Z,6.00
2018-07-17T09:10:18.750Z,4.80
2018-07-17T09:11:18.753Z,4.90
2018-07-17T09:12:18.764Z,5.60
2018-07-17T09:13:18.765Z,5.00
2018-07-17T09:14:18.762Z,5.10
2018-07-17T09:15:18.769Z,5.30
2018-07-17T09:16:18.768Z,5.00
2018-07-17T09:17:18.770Z,5.40
2018-07-17T09:18:18.785Z,5.60
2018-07-17T09:19:18.783Z,5.80
2018-07-17T09:20:18.787Z,5.40
2018-07-17T09:21:18.795Z,5.70
2018-07-17T09:22:18.786Z,5.30
2018-07-17T09:23:18.802Z,5.90
2018-07-17T09:24:18.793Z,5.00
2018-07-17T09:25:18.805Z,5.30
2018-07-17T09:26:18.803Z,5.60
2018-07-17T09:27:18.803Z,5.20
2018-07-17T09:28:18.899Z,5.60
2018-07-17T09:29:18.821Z,5.60
2018-07-17T09:30:18.827Z,5.90
2018-07-17T09:31:18.815Z,5.30
2018-07-17T09:32:18.834Z,5.60
2018-07-17T09:33:18.830Z,5.40
2018-07-17T09:34:18.838Z,5.40
2018-07-17T09:35:18.832Z,6.00
2018-07-17T09:36:18.838Z,5.50
2018-07-17T09:37:18.831Z,5.20
2018-07-17T09:38:18.844Z,5.70
2018-07-17T09:39:18.838Z,5.40
2018-07-17T09:40:18.843Z,5.60
2018-07-17T09:41:18.855Z,5.70
2018-07-17T09:42:18.851Z,5.60
2018-07-17T09:43:18.853Z,5.50
2018-07-17T09:44:18.895Z,6.00
2018-07-17T09:45:18.861Z,5.70
2018-07-17T09:46:18.872Z,5.20
2018-07-17T09:47:18.879Z,5.50
2018-07-17T09:48:18.881Z,6.40
2018-07-17T09:49:18.884Z,5.90
2018-07-17T09:50:18.884Z,5.40
2018-07-17T09:51:18.883Z,5.80
2018-07-17T09:52:18.885Z,5.70
2018-07-17T09:53:18.894Z,5.60
2018-07-17T09:54:18.922Z,6.20
2018-07-17T09:55:18.896Z,5.80
2018-07-17T09:56:18.900Z,5.50
2018-07-17T09:57:18.909Z,5.80
2018-07-17T09:58:18.909Z,5.60
2018-07-17T09:59:18.919Z,6.00
2018-07-17T10:00:18.914Z,5.50
2018-07-17T10:01:18.929Z,5.70
2018-07-17T10:02:18.924Z,5.60
2018-07-17T10:03:18.934Z,6.20
2018-07-17T10:04:18.930Z,6.00
2018-07-17T10:05:18.945Z,5.50
2018-07-17T10:06:18.943Z,5.10
2018-07-17T10:07:18.944Z,5.80
2018-07-17T10:08:18.960Z,5.80
2018-07-17T10:09:18.958Z,5.40
2018-07-17T10:10:18.957Z,5.20
2018-07-17T10:11:18.969Z,5.30
2018-07-17T10:12:18.964Z,5.30
2018-07-17T10:13:18.970Z,5.10
2018-07-17T10:14:18.974Z,5.30
2018-07-17T10:15:18.991Z,4.90
2018-07-17T10:16:18.991Z,5.30
2018-07-17T10:17:18.991Z,5.10
2018-07-17T10:18:19.000Z,5.60
2018-07-17T10:19:19.004Z,5.30
2018-07-17T10:20:19.011Z,5.60
2018-07-17T10:21:19.006Z,5.50
2018-07-17T10:22:19.010Z,5.30
2018-07-17T10:23:19.021Z,5.60
2018-07-17T10:24:19.018Z,5.90
2018-07-17T10:25:19.023Z,5.10
2018-07-17T10:26:19.054Z,5.20
2018-07-17T10:27:19.034Z,5.10
2018-07-17T10:28:19.047Z,5.40
2018-07-17T10:29:19.040Z,5.20
2018-07-17T10:30:19.042Z,5.00
2018-07-17T10:31:19.051Z,5.30
2018-07-17T10:32:19.050Z,5.20
2018-07-17T10:33:19.057Z,5.30
2018-07-17T10:34:19.058Z,4.60
2018-07-17T10:35:19.063Z,5.10
2018-07-17T10:36:19.065Z,5.00
2018-07-17T10:37:19.096Z,5.10
2018-07-17T10:38:19.079Z,5.60
2018-07-17T10:39:19.083Z,4.70
2018-07-17T10:40:19.085Z,5.20
2018-07-17T10:41:19.088Z,5.20
2018-07-17T10:42:19.102Z,4.90
2018-07-17T10:43:19.094Z,5.20
2018-07-17T10:44:19.096Z,5.70
2018-07-17T10:45:19.099Z,5.40
2018-07-17T10:46:19.107Z,5.60
2018-07-17T10:47:19.109Z,5.40
2018-07-17T10:48:19.110Z,5.30
2018-07-17T10:49:19.124Z,5.60
2018-07-17T10:50:19.126Z,5.10
2018-07-17T10:51:19.122Z,5.30
2018-07-17T10:52:19.150Z,5.10
2018-07-17T10:53:19.128Z,5.40
2018-07-17T10:54:19.146Z,5.40
2018-07-17T10:55:19.135Z,5.20
2018-07-17T10:56:19.139Z,5.10
2018-07-17T10:57:19.157Z,5.20
2018-07-17T10:58:19.147Z,5.40
2018-07-17T10:59:19.155Z,5.00
2018-07-17T11:00:19.153Z,4.90
2018-07-17T11:01:19.158Z,5.10
2018-07-17T11:02:19.159Z,5.90
2018-07-17T11:03:19.162Z,5.40
2018-07-17T11:04:19.166Z,6.10
2018-07-17T11:05:19.185Z,5.70
2018-07-17T11:06:19.217Z,5.80
2018-07-17T11:07:19.177Z,5.90
2018-07-17T11:08:19.223Z,6.00
2018-07-17T11:09:19.184Z,5.80
2018-07-17T11:10:19.191Z,5.60
2018-07-17T11:11:19.195Z,6.20
2018-07-17T11:12:19.202Z,6.50
2018-07-17T11:13:19.202Z,6.10
2018-07-17T11:14:19.202Z,5.50
2018-07-17T11:15:19.203Z,5.20
2018-07-17T11:16:19.209Z,5.40
2018-07-17T11:17:19.209Z,5.30
2018-07-17T11:18:19.225Z,5.50
2018-07-17T11:19:19.215Z,5.50
2018-07-17T11:20:19.229Z,5.50
2018-07-17T11:21:19.232Z,5.40
2018-07-17T11:22:19.226Z,5.20
2018-07-17T11:23:19.242Z,5.40
2018-07-17T11:24:19.230Z,5.10
2018-07-17T11:25:19.239Z,5.40
2018-07-17T11:26:19.245Z,5.80
2018-07-17T11:27:19.248Z,5.50
2018-07-17T11:28:19.245Z,5.70
2018-07-17T11:29:19.248Z,5.50
2018-07-17T11:30:19.260Z,5.40
2018-07-17T11:31:19.254Z,5.20
2018-07-17T11:32:19.253Z,5.50
2018-07-17T11:33:19.266Z,7.10
2018-07-17T11:34:19.264Z,7.50
2018-07-17T11:35:19.264Z,9.20
2018-07-17T11:36:19.276Z,10.40
2018-07-17T11:37:19.269Z,8.30
2018-07-17T11:38:19.271Z,6.90
2018-07-17T11:39:19.275Z,4.80
2018-07-17T11:40:19.276Z,4.30
2018-07-17T11:41:19.281Z,3.30
2018-07-17T11:42:19.286Z,4.50
2018-07-17T11:43:19.286Z,5.20
2018-07-17T11:44:19.296Z,4.30
2018-07-17T11:45:19.291Z,3.70
2018-07-17T11:46:19.298Z,4.00
2018-07-17T11:47:19.298Z,3.50
2018-07-17T11:48:19.297Z,4.20
2018-07-17T11:49:19.310Z,3.40
2018-07-17T11:50:19.308Z,3.60
2018-07-17T11:51:19.304Z,3.60
2018-07-17T11:52:19.308Z,3.50
2018-07-17T11:53:19.325Z,3.40
2018-07-17T11:54:19.311Z,3.50
2018-07-17T11:55:19.313Z,2.90
2018-07-17T11:56:19.316Z,3.50
2018-07-17T11:57:19.321Z,3.20
2018-07-17T11:58:19.331Z,3.30
2018-07-17T11:59:19.367Z,3.30
2018-07-17T12:00:19.326Z,3.40
2018-07-17T12:01:19.327Z,3.30
2018-07-17T12:02:19.329Z,3.30
2018-07-17T12:03:19.330Z,3.50
2018-07-17T12:04:19.342Z,3.40
2018-07-17T12:05:19.342Z,2.50
2018-07-17T12:06:19.335Z,2.60
2018-07-17T12:07:19.336Z,2.20
2018-07-17T12:08:19.348Z,1.90
2018-07-17T12:09:19.340Z,1.90
2018-07-17T12:10:19.342Z,2.30
2018-07-17T12:11:19.355Z,2.30
2018-07-17T12:12:19.343Z,2.20
2018-07-17T12:13:19.347Z,1.90
2018-07-17T12:14:19.353Z,2.30
2018-07-17T12:15:19.354Z,2.10
2018-07-17T12:16:19.346Z,2.10
2018-07-17T12:17:19.353Z,2.20
2018-07-17T12:18:19.360Z,1.90
2018-07-17T12:19:19.352Z,2.20
2018-07-17T12:20:19.454Z,1.70
2018-07-17T12:21:19.353Z,2.00
2018-07-17T12:22:19.363Z,2.20
2018-07-17T12:23:19.361Z,1.90
2018-07-17T12:24:19.356Z,2.00
2018-07-17T12:25:19.358Z,1.90
2018-07-17T12:26:19.369Z,1.90
2018-07-17T12:27:19.361Z,2.10
2018-07-17T12:28:19.371Z,2.20
2018-07-17T12:29:19.364Z,2.00
2018-07-17T12:30:19.369Z,2.00
2018-07-17T12:31:19.366Z,1.80
2018-07-17T12:32:19.376Z,2.10
2018-07-17T12:33:19.378Z,2.20
2018-07-17T12:34:19.399Z,2.10
2018-07-17T12:35:19.386Z,2.10
2018-07-17T12:36:19.374Z,2.10
2018-07-17T12:37:19.377Z,2.00
2018-07-17T12:38:19.393Z,2.20
2018-07-17T12:39:19.383Z,2.40
2018-07-17T12:40:19.386Z,2.20
2018-07-17T12:41:19.389Z,2.50
2018-07-17T12:42:19.391Z,2.50
2018-07-17T12:43:19.387Z,2.30
2018-07-17T12:44:19.439Z,2.50
2018-07-17T12:45:19.387Z,2.80
2018-07-17T12:46:19.392Z,2.80
2018-07-17T12:47:19.390Z,2.50
2018-07-17T12:48:19.397Z,2.40
2018-07-17T12:49:19.392Z,2.60
2018-07-17T12:50:19.401Z,2.70
2018-07-17T12:51:19.399Z,2.50
2018-07-17T12:52:19.400Z,2.80
2018-07-17T12:53:19.405Z,2.20
2018-07-17T12:54:19.401Z,2.00
2018-07-17T12:55:19.415Z,2.50
2018-07-17T12:56:19.422Z,2.50
2018-07-17T12:57:19.402Z,2.30
2018-07-17T12:58:19.411Z,2.70
2018-07-17T12:59:19.413Z,2.50
2018-07-17T13:00:19.422Z,2.40
2018-07-17T13:01:19.407Z,2.50
2018-07-17T13:02:19.421Z,2.50
2018-07-17T13:03:19.414Z,2.30
2018-07-17T13:04:19.416Z,3.00
2018-07-17T13:05:19.412Z,2.30
2018-07-17T13:06:19.416Z,2.40
2018-07-17T13:07:19.417Z,2.40
2018-07-17T13:08:19.458Z,2.70
2018-07-17T13:09:19.420Z,2.20
2018-07-17T13:10:19.419Z,2.50
2018-07-17T13:11:19.422Z,2.40
2018-07-17T13:12:19.423Z,2.40
2018-07-17T13:13:19.414Z,2.30
2018-07-17T13:14:19.423Z,2.30
2018-07-17T13:15:19.418Z,2.70
2018-07-17T13:16:19.425Z,3.10
2018-07-17T13:17:19.444Z,2.80
2018-07-17T13:18:19.416Z,2.70